sensor_id;sensor_type;location;lat;lon;timestamp;P1;durP1;ratioP1;P2;durP2;ratioP2
36253;SDS011;22291;52.250;21.228;2022-10-14T00:01:09;27.60;;;14.30;;
36253;SDS011;22291;52.250;21.228;2022-10-14T00:03:38;24.95;;;13.65;;
36253;SDS011;22291;52.250;21.228;2022-10-14T00:06:10;26.25;;;14.38;;
36253;SDS011;22291;52.250;21.228;2022-10-14T00:08:35;29.12;;;14.58;;
36253;SDS011;22291;52.250;21.228;2022-10-14T00:11:08;29.52;;;14.70;;
36253;SDS011;22291;52.250;21.228;2022-10-14T00:13:36;26.97;;;14.33;;
36253;SDS011;22291;52.250;21.228;2022-10-14T00:16:03;27.15;;;14.65;;
36253;SDS011;22291;52.250;21.228;2022-10-14T00:18:30;24.63;;;14.43;;
36253;SDS011;22291;52.250;21.228;2022-10-14T00:21:01;25.52;;;14.23;;
36253;SDS011;22291;52.250;21.228;2022-10-14T00:23:25;33.23;;;15.00;;
36253;SDS011;22291;52.250;21.228;2022-10-14T00:25:52;28.10;;;14.35;;
36253;SDS011;22291;52.250;21.228;2022-10-14T00:28:18;27.55;;;14.18;;
36253;SDS011;22291;52.250;21.228;2022-10-14T00:30:57;29.23;;;15.60;;
36253;SDS011;22291;52.250;21.228;2022-10-14T00:33:24;29.48;;;15.45;;
36253;SDS011;22291;52.250;21.228;2022-10-14T00:35:56;27.98;;;14.58;;
36253;SDS011;22291;52.250;21.228;2022-10-14T00:38:20;28.92;;;14.78;;
36253;SDS011;22291;52.250;21.228;2022-10-14T00:40:46;26.35;;;15.20;;
36253;SDS011;22291;52.250;21.228;2022-10-14T00:43:12;29.00;;;14.98;;
36253;SDS011;22291;52.250;21.228;2022-10-14T00:45:39;32.05;;;15.83;;
36253;SDS011;22291;52.250;21.228;2022-10-14T00:48:05;27.95;;;14.95;;
36253;SDS011;22291;52.250;21.228;2022-10-14T00:50:32;29.07;;;14.83;;
36253;SDS011;22291;52.250;21.228;2022-10-14T00:52:58;29.35;;;15.40;;
36253;SDS011;22291;52.250;21.228;2022-10-14T00:55:25;27.62;;;15.75;;
36253;SDS011;22291;52.250;21.228;2022-10-14T00:57:51;28.27;;;14.50;;
36253;SDS011;22291;52.250;21.228;2022-10-14T01:00:17;31.17;;;14.95;;
36253;SDS011;22291;52.250;21.228;2022-10-14T01:02:44;27.17;;;14.63;;
36253;SDS011;22291;52.250;21.228;2022-10-14T01:05:13;27.98;;;14.53;;
36253;SDS011;22291;52.250;21.228;2022-10-14T01:13:07;29.37;;;15.25;;
36253;SDS011;22291;52.250;21.228;2022-10-14T01:18:56;34.30;;;15.72;;
36253;SDS011;22291;52.250;21.228;2022-10-14T01:21:26;30.90;;;15.30;;
36253;SDS011;22291;52.250;21.228;2022-10-14T01:24:19;27.60;;;14.47;;
36253;SDS011;22291;52.250;21.228;2022-10-14T01:32:31;28.02;;;15.60;;
36253;SDS011;22291;52.250;21.228;2022-10-14T01:37:51;33.63;;;15.32;;
36253;SDS011;22291;52.250;21.228;2022-10-14T01:42:47;29.92;;;16.15;;
36253;SDS011;22291;52.250;21.228;2022-10-14T01:45:16;30.02;;;14.95;;
36253;SDS011;22291;52.250;21.228;2022-10-14T01:47:47;25.57;;;14.90;;
36253;SDS011;22291;52.250;21.228;2022-10-14T01:50:14;28.40;;;16.10;;
36253;SDS011;22291;52.250;21.228;2022-10-14T01:52:45;35.00;;;15.88;;
36253;SDS011;22291;52.250;21.228;2022-10-14T01:55:19;25.35;;;15.08;;
36253;SDS011;22291;52.250;21.228;2022-10-14T01:57:48;31.00;;;16.27;;
36253;SDS011;22291;52.250;21.228;2022-10-14T02:00:16;30.65;;;16.65;;
36253;SDS011;22291;52.250;21.228;2022-10-14T02:02:42;30.70;;;15.25;;
36253;SDS011;22291;52.250;21.228;2022-10-14T02:05:13;27.65;;;15.63;;
36253;SDS011;22291;52.250;21.228;2022-10-14T02:07:39;31.77;;;17.85;;
36253;SDS011;22291;52.250;21.228;2022-10-14T02:15:40;30.27;;;15.70;;
36253;SDS011;22291;52.250;21.228;2022-10-14T02:18:27;32.80;;;16.70;;
36253;SDS011;22291;52.250;21.228;2022-10-14T02:21:11;26.97;;;15.10;;
36253;SDS011;22291;52.250;21.228;2022-10-14T02:23:52;32.60;;;16.32;;
36253;SDS011;22291;52.250;21.228;2022-10-14T02:28:45;32.90;;;16.32;;
36253;SDS011;22291;52.250;21.228;2022-10-14T02:31:13;29.00;;;16.17;;
36253;SDS011;22291;52.250;21.228;2022-10-14T02:33:41;33.05;;;16.27;;
36253;SDS011;22291;52.250;21.228;2022-10-14T02:36:10;33.42;;;16.73;;
36253;SDS011;22291;52.250;21.228;2022-10-14T02:38:37;29.05;;;17.07;;
36253;SDS011;22291;52.250;21.228;2022-10-14T02:41:04;38.20;;;17.42;;
36253;SDS011;22291;52.250;21.228;2022-10-14T02:43:33;27.48;;;15.30;;
36253;SDS011;22291;52.250;21.228;2022-10-14T02:46:00;29.70;;;16.20;;
36253;SDS011;22291;52.250;21.228;2022-10-14T02:48:27;30.02;;;17.55;;
36253;SDS011;22291;52.250;21.228;2022-10-14T02:50:53;31.93;;;16.40;;
36253;SDS011;22291;52.250;21.228;2022-10-14T02:53:19;33.08;;;16.90;;
36253;SDS011;22291;52.250;21.228;2022-10-14T02:55:45;28.50;;;17.25;;
36253;SDS011;22291;52.250;21.228;2022-10-14T02:58:11;36.60;;;17.50;;
36253;SDS011;22291;52.250;21.228;2022-10-14T03:00:37;34.03;;;16.07;;
36253;SDS011;22291;52.250;21.228;2022-10-14T03:03:03;32.33;;;18.07;;
36253;SDS011;22291;52.250;21.228;2022-10-14T03:05:29;32.83;;;17.98;;
36253;SDS011;22291;52.250;21.228;2022-10-14T03:07:55;31.52;;;18.37;;
36253;SDS011;22291;52.250;21.228;2022-10-14T03:10:21;32.03;;;17.00;;
36253;SDS011;22291;52.250;21.228;2022-10-14T03:12:47;30.52;;;18.42;;
36253;SDS011;22291;52.250;21.228;2022-10-14T03:15:13;26.80;;;16.62;;
36253;SDS011;22291;52.250;21.228;2022-10-14T03:17:39;31.85;;;18.27;;
36253;SDS011;22291;52.250;21.228;2022-10-14T03:20:05;33.53;;;19.23;;
36253;SDS011;22291;52.250;21.228;2022-10-14T03:22:32;31.12;;;17.27;;
36253;SDS011;22291;52.250;21.228;2022-10-14T03:24:57;34.35;;;19.15;;
36253;SDS011;22291;52.250;21.228;2022-10-14T03:27:23;38.53;;;19.00;;
36253;SDS011;22291;52.250;21.228;2022-10-14T03:29:50;34.40;;;18.65;;
36253;SDS011;22291;52.250;21.228;2022-10-14T03:32:16;32.08;;;18.85;;
36253;SDS011;22291;52.250;21.228;2022-10-14T03:34:42;35.35;;;19.20;;
36253;SDS011;22291;52.250;21.228;2022-10-14T03:37:08;33.55;;;18.92;;
36253;SDS011;22291;52.250;21.228;2022-10-14T03:39:34;34.48;;;19.07;;
36253;SDS011;22291;52.250;21.228;2022-10-14T03:41:59;37.15;;;18.42;;
36253;SDS011;22291;52.250;21.228;2022-10-14T03:44:25;31.62;;;18.95;;
36253;SDS011;22291;52.250;21.228;2022-10-14T03:46:51;38.33;;;20.48;;
36253;SDS011;22291;52.250;21.228;2022-10-14T03:49:17;38.08;;;19.40;;
36253;SDS011;22291;52.250;21.228;2022-10-14T03:51:43;33.18;;;19.02;;
36253;SDS011;22291;52.250;21.228;2022-10-14T03:54:09;37.08;;;20.35;;
36253;SDS011;22291;52.250;21.228;2022-10-14T03:56:35;34.70;;;20.08;;
36253;SDS011;22291;52.250;21.228;2022-10-14T03:59:03;34.30;;;19.87;;
36253;SDS011;22291;52.250;21.228;2022-10-14T04:01:28;35.90;;;19.70;;
36253;SDS011;22291;52.250;21.228;2022-10-14T04:03:54;36.38;;;20.05;;
36253;SDS011;22291;52.250;21.228;2022-10-14T04:06:20;42.30;;;20.57;;
36253;SDS011;22291;52.250;21.228;2022-10-14T04:08:46;35.13;;;19.95;;
36253;SDS011;22291;52.250;21.228;2022-10-14T04:11:12;40.05;;;20.88;;
36253;SDS011;22291;52.250;21.228;2022-10-14T04:13:38;33.42;;;20.48;;
36253;SDS011;22291;52.250;21.228;2022-10-14T04:16:10;36.25;;;20.68;;
36253;SDS011;22291;52.250;21.228;2022-10-14T04:18:33;36.73;;;19.60;;
36253;SDS011;22291;52.250;21.228;2022-10-14T04:21:05;42.27;;;20.55;;
36253;SDS011;22291;52.250;21.228;2022-10-14T04:23:28;40.52;;;20.72;;
36253;SDS011;22291;52.250;21.228;2022-10-14T04:25:54;34.08;;;20.57;;
36253;SDS011;22291;52.250;21.228;2022-10-14T04:28:20;38.78;;;21.60;;
36253;SDS011;22291;52.250;21.228;2022-10-14T04:30:46;38.00;;;20.37;;
36253;SDS011;22291;52.250;21.228;2022-10-14T04:33:12;38.13;;;20.00;;
36253;SDS011;22291;52.250;21.228;2022-10-14T04:35:39;36.90;;;20.68;;
36253;SDS011;22291;52.250;21.228;2022-10-14T04:38:04;38.33;;;19.40;;
36253;SDS011;22291;52.250;21.228;2022-10-14T04:40:30;39.65;;;21.37;;
36253;SDS011;22291;52.250;21.228;2022-10-14T04:42:57;34.83;;;21.87;;
36253;SDS011;22291;52.250;21.228;2022-10-14T04:45:23;34.08;;;21.12;;
36253;SDS011;22291;52.250;21.228;2022-10-14T04:47:50;34.75;;;21.33;;
36253;SDS011;22291;52.250;21.228;2022-10-14T04:50:17;36.75;;;21.55;;
36253;SDS011;22291;52.250;21.228;2022-10-14T04:52:44;41.75;;;23.05;;
36253;SDS011;22291;52.250;21.228;2022-10-14T04:55:10;44.05;;;22.80;;
36253;SDS011;22291;52.250;21.228;2022-10-14T04:57:37;41.02;;;20.57;;
36253;SDS011;22291;52.250;21.228;2022-10-14T05:00:05;33.83;;;21.65;;
36253;SDS011;22291;52.250;21.228;2022-10-14T05:02:32;40.83;;;23.15;;
36253;SDS011;22291;52.250;21.228;2022-10-14T05:04:58;41.45;;;21.45;;
36253;SDS011;22291;52.250;21.228;2022-10-14T05:07:24;39.48;;;22.45;;
36253;SDS011;22291;52.250;21.228;2022-10-14T05:09:50;33.20;;;22.40;;
36253;SDS011;22291;52.250;21.228;2022-10-14T05:12:16;43.48;;;21.97;;
36253;SDS011;22291;52.250;21.228;2022-10-14T05:14:42;40.75;;;22.55;;
36253;SDS011;22291;52.250;21.228;2022-10-14T05:17:08;38.40;;;21.90;;
36253;SDS011;22291;52.250;21.228;2022-10-14T05:19:34;33.88;;;22.48;;
36253;SDS011;22291;52.250;21.228;2022-10-14T05:22:00;40.73;;;22.77;;
36253;SDS011;22291;52.250;21.228;2022-10-14T05:24:26;39.03;;;23.02;;
36253;SDS011;22291;52.250;21.228;2022-10-14T05:26:52;36.63;;;21.45;;
36253;SDS011;22291;52.250;21.228;2022-10-14T05:29:18;37.08;;;22.35;;
36253;SDS011;22291;52.250;21.228;2022-10-14T05:31:44;43.87;;;22.87;;
36253;SDS011;22291;52.250;21.228;2022-10-14T05:34:10;40.38;;;22.48;;
36253;SDS011;22291;52.250;21.228;2022-10-14T05:36:36;39.48;;;22.62;;
36253;SDS011;22291;52.250;21.228;2022-10-14T05:39:05;39.88;;;23.30;;
36253;SDS011;22291;52.250;21.228;2022-10-14T05:41:33;42.90;;;23.83;;
36253;SDS011;22291;52.250;21.228;2022-10-14T05:43:59;38.10;;;23.15;;
36253;SDS011;22291;52.250;21.228;2022-10-14T05:46:25;39.15;;;22.25;;
36253;SDS011;22291;52.250;21.228;2022-10-14T05:48:51;44.80;;;24.20;;
36253;SDS011;22291;52.250;21.228;2022-10-14T05:51:17;38.88;;;24.25;;
36253;SDS011;22291;52.250;21.228;2022-10-14T05:53:45;42.60;;;24.05;;
36253;SDS011;22291;52.250;21.228;2022-10-14T05:56:12;38.63;;;23.07;;
36253;SDS011;22291;52.250;21.228;2022-10-14T05:58:38;39.30;;;23.87;;
36253;SDS011;22291;52.250;21.228;2022-10-14T06:01:05;42.45;;;24.30;;
36253;SDS011;22291;52.250;21.228;2022-10-14T06:03:34;44.15;;;24.32;;
36253;SDS011;22291;52.250;21.228;2022-10-14T06:06:00;44.40;;;25.80;;
36253;SDS011;22291;52.250;21.228;2022-10-14T06:08:27;47.43;;;25.02;;
36253;SDS011;22291;52.250;21.228;2022-10-14T06:10:53;37.65;;;24.77;;
36253;SDS011;22291;52.250;21.228;2022-10-14T06:13:19;44.48;;;23.90;;
36253;SDS011;22291;52.250;21.228;2022-10-14T06:15:46;38.73;;;24.25;;
36253;SDS011;22291;52.250;21.228;2022-10-14T06:18:12;43.68;;;27.90;;
36253;SDS011;22291;52.250;21.228;2022-10-14T06:20:37;49.30;;;28.05;;
36253;SDS011;22291;52.250;21.228;2022-10-14T06:23:04;43.00;;;26.15;;
36253;SDS011;22291;52.250;21.228;2022-10-14T06:25:30;46.30;;;28.80;;
36253;SDS011;22291;52.250;21.228;2022-10-14T06:28:03;44.77;;;26.62;;
36253;SDS011;22291;52.250;21.228;2022-10-14T06:30:30;43.75;;;25.20;;
36253;SDS011;22291;52.250;21.228;2022-10-14T06:32:56;39.63;;;25.45;;
36253;SDS011;22291;52.250;21.228;2022-10-14T06:35:23;41.40;;;26.55;;
36253;SDS011;22291;52.250;21.228;2022-10-14T06:37:49;48.90;;;27.95;;
36253;SDS011;22291;52.250;21.228;2022-10-14T06:40:15;48.25;;;28.75;;
36253;SDS011;22291;52.250;21.228;2022-10-14T06:42:40;46.37;;;27.50;;
36253;SDS011;22291;52.250;21.228;2022-10-14T06:45:07;48.90;;;28.25;;
36253;SDS011;22291;52.250;21.228;2022-10-14T06:47:33;49.13;;;27.37;;
36253;SDS011;22291;52.250;21.228;2022-10-14T06:49:59;49.98;;;27.90;;
36253;SDS011;22291;52.250;21.228;2022-10-14T06:52:25;50.80;;;26.52;;
36253;SDS011;22291;52.250;21.228;2022-10-14T06:54:51;49.13;;;26.80;;
36253;SDS011;22291;52.250;21.228;2022-10-14T06:57:16;45.03;;;28.25;;
36253;SDS011;22291;52.250;21.228;2022-10-14T06:59:42;47.35;;;26.10;;
36253;SDS011;22291;52.250;21.228;2022-10-14T07:02:09;48.33;;;27.02;;
36253;SDS011;22291;52.250;21.228;2022-10-14T07:04:35;48.05;;;26.73;;
36253;SDS011;22291;52.250;21.228;2022-10-14T07:07:01;45.52;;;26.68;;
36253;SDS011;22291;52.250;21.228;2022-10-14T07:09:28;42.70;;;25.75;;
36253;SDS011;22291;52.250;21.228;2022-10-14T07:11:54;41.92;;;26.15;;
36253;SDS011;22291;52.250;21.228;2022-10-14T07:14:20;46.10;;;27.67;;
36253;SDS011;22291;52.250;21.228;2022-10-14T07:16:46;37.00;;;24.65;;
36253;SDS011;22291;52.250;21.228;2022-10-14T07:19:12;47.23;;;26.85;;
36253;SDS011;22291;52.250;21.228;2022-10-14T07:21:39;45.83;;;27.17;;
36253;SDS011;22291;52.250;21.228;2022-10-14T07:24:07;43.07;;;26.97;;
36253;SDS011;22291;52.250;21.228;2022-10-14T07:26:34;42.70;;;25.90;;
36253;SDS011;22291;52.250;21.228;2022-10-14T07:29:02;41.75;;;25.90;;
36253;SDS011;22291;52.250;21.228;2022-10-14T07:31:29;37.53;;;24.30;;
36253;SDS011;22291;52.250;21.228;2022-10-14T07:33:55;45.12;;;26.33;;
36253;SDS011;22291;52.250;21.228;2022-10-14T07:36:21;40.03;;;24.60;;
36253;SDS011;22291;52.250;21.228;2022-10-14T07:38:47;41.98;;;26.90;;
36253;SDS011;22291;52.250;21.228;2022-10-14T07:41:15;36.33;;;24.12;;
36253;SDS011;22291;52.250;21.228;2022-10-14T07:43:45;45.17;;;26.17;;
36253;SDS011;22291;52.250;21.228;2022-10-14T07:46:12;44.38;;;26.70;;
36253;SDS011;22291;52.250;21.228;2022-10-14T07:48:39;41.88;;;24.65;;
36253;SDS011;22291;52.250;21.228;2022-10-14T07:51:09;45.23;;;26.00;;
36253;SDS011;22291;52.250;21.228;2022-10-14T07:53:33;40.20;;;24.18;;
36253;SDS011;22291;52.250;21.228;2022-10-14T07:56:00;44.23;;;24.20;;
36253;SDS011;22291;52.250;21.228;2022-10-14T07:58:27;42.93;;;24.72;;
36253;SDS011;22291;52.250;21.228;2022-10-14T08:00:55;43.08;;;23.67;;
36253;SDS011;22291;52.250;21.228;2022-10-14T08:03:22;40.05;;;25.05;;
36253;SDS011;22291;52.250;21.228;2022-10-14T08:05:49;39.55;;;24.20;;
36253;SDS011;22291;52.250;21.228;2022-10-14T08:08:16;38.92;;;23.80;;
36253;SDS011;22291;52.250;21.228;2022-10-14T08:10:43;36.05;;;23.77;;
36253;SDS011;22291;52.250;21.228;2022-10-14T08:13:09;36.63;;;23.70;;
36253;SDS011;22291;52.250;21.228;2022-10-14T08:15:36;37.33;;;23.85;;
36253;SDS011;22291;52.250;21.228;2022-10-14T08:20:32;43.17;;;24.07;;
36253;SDS011;22291;52.250;21.228;2022-10-14T08:23:00;35.83;;;23.57;;
36253;SDS011;22291;52.250;21.228;2022-10-14T08:25:26;38.98;;;25.08;;
36253;SDS011;22291;52.250;21.228;2022-10-14T08:27:52;38.60;;;24.90;;
36253;SDS011;22291;52.250;21.228;2022-10-14T08:30:21;36.88;;;25.02;;
36253;SDS011;22291;52.250;21.228;2022-10-14T08:32:47;35.58;;;22.80;;
36253;SDS011;22291;52.250;21.228;2022-10-14T08:35:13;34.50;;;21.95;;
36253;SDS011;22291;52.250;21.228;2022-10-14T08:37:39;36.15;;;21.30;;
36253;SDS011;22291;52.250;21.228;2022-10-14T08:40:06;29.67;;;20.50;;
36253;SDS011;22291;52.250;21.228;2022-10-14T08:42:38;32.50;;;19.85;;
36253;SDS011;22291;52.250;21.228;2022-10-14T08:45:14;31.37;;;20.32;;
36253;SDS011;22291;52.250;21.228;2022-10-14T08:47:43;28.25;;;18.30;;
36253;SDS011;22291;52.250;21.228;2022-10-14T08:50:29;31.15;;;18.77;;
36253;SDS011;22291;52.250;21.228;2022-10-14T08:53:01;30.40;;;18.42;;
36253;SDS011;22291;52.250;21.228;2022-10-14T08:55:35;28.83;;;17.42;;
36253;SDS011;22291;52.250;21.228;2022-10-14T09:00:49;28.80;;;16.70;;
36253;SDS011;22291;52.250;21.228;2022-10-14T09:03:18;28.35;;;16.30;;
36253;SDS011;22291;52.250;21.228;2022-10-14T09:06:25;26.97;;;15.55;;
36253;SDS011;22291;52.250;21.228;2022-10-14T09:08:34;23.73;;;15.00;;
36253;SDS011;22291;52.250;21.228;2022-10-14T09:10:58;27.85;;;15.78;;
36253;SDS011;22291;52.250;21.228;2022-10-14T09:13:30;22.93;;;14.33;;
36253;SDS011;22291;52.250;21.228;2022-10-14T09:15:59;21.00;;;13.25;;
36253;SDS011;22291;52.250;21.228;2022-10-14T09:18:35;20.08;;;12.78;;
36253;SDS011;22291;52.250;21.228;2022-10-14T09:21:21;20.25;;;12.03;;
36253;SDS011;22291;52.250;21.228;2022-10-14T09:23:48;15.90;;;10.90;;
36253;SDS011;22291;52.250;21.228;2022-10-14T09:26:18;21.27;;;12.37;;
36253;SDS011;22291;52.250;21.228;2022-10-14T09:31:14;20.15;;;11.80;;
36253;SDS011;22291;52.250;21.228;2022-10-14T09:33:40;15.90;;;10.95;;
36253;SDS011;22291;52.250;21.228;2022-10-14T09:36:12;18.65;;;12.07;;
36253;SDS011;22291;52.250;21.228;2022-10-14T09:38:40;20.05;;;11.00;;
36253;SDS011;22291;52.250;21.228;2022-10-14T09:41:06;19.60;;;11.20;;
36253;SDS011;22291;52.250;21.228;2022-10-14T09:43:35;18.75;;;10.78;;
36253;SDS011;22291;52.250;21.228;2022-10-14T09:46:03;15.23;;;10.50;;
36253;SDS011;22291;52.250;21.228;2022-10-14T09:48:37;17.15;;;10.65;;
36253;SDS011;22291;52.250;21.228;2022-10-14T09:51:09;19.52;;;10.03;;
36253;SDS011;22291;52.250;21.228;2022-10-14T09:53:38;15.48;;;9.95;;
36253;SDS011;22291;52.250;21.228;2022-10-14T09:56:09;20.72;;;9.48;;
36253;SDS011;22291;52.250;21.228;2022-10-14T09:58:48;20.60;;;10.23;;
36253;SDS011;22291;52.250;21.228;2022-10-14T10:01:20;16.50;;;9.78;;
36253;SDS011;22291;52.250;21.228;2022-10-14T10:03:51;15.32;;;10.20;;
36253;SDS011;22291;52.250;21.228;2022-10-14T10:06:19;17.00;;;9.90;;
36253;SDS011;22291;52.250;21.228;2022-10-14T10:11:36;15.88;;;10.75;;
36253;SDS011;22291;52.250;21.228;2022-10-14T10:16:49;17.30;;;10.88;;
36253;SDS011;22291;52.250;21.228;2022-10-14T10:19:37;17.57;;;10.68;;
36253;SDS011;22291;52.250;21.228;2022-10-14T10:22:35;19.73;;;11.40;;
36253;SDS011;22291;52.250;21.228;2022-10-14T10:27:37;17.52;;;11.03;;
36253;SDS011;22291;52.250;21.228;2022-10-14T10:35:54;18.32;;;10.03;;
36253;SDS011;22291;52.250;21.228;2022-10-14T10:38:21;18.23;;;10.48;;
36253;SDS011;22291;52.250;21.228;2022-10-14T10:48:33;18.45;;;10.38;;
36253;SDS011;22291;52.250;21.228;2022-10-14T10:51:13;18.32;;;9.93;;
36253;SDS011;22291;52.250;21.228;2022-10-14T10:54:07;18.48;;;10.23;;
36253;SDS011;22291;52.250;21.228;2022-10-14T10:56:47;17.67;;;10.38;;
36253;SDS011;22291;52.250;21.228;2022-10-14T11:07:50;18.57;;;9.43;;
36253;SDS011;22291;52.250;21.228;2022-10-14T11:10:32;15.23;;;8.90;;
36253;SDS011;22291;52.250;21.228;2022-10-14T11:16:02;12.98;;;8.70;;
36253;SDS011;22291;52.250;21.228;2022-10-14T11:21:08;23.67;;;9.58;;
36253;SDS011;22291;52.250;21.228;2022-10-14T11:23:42;17.77;;;10.32;;
36253;SDS011;22291;52.250;21.228;2022-10-14T11:37:43;20.05;;;10.32;;
36253;SDS011;22291;52.250;21.228;2022-10-14T11:45:44;15.48;;;9.25;;
36253;SDS011;22291;52.250;21.228;2022-10-14T11:48:35;19.20;;;9.38;;
36253;SDS011;22291;52.250;21.228;2022-10-14T11:51:14;14.07;;;9.78;;
36253;SDS011;22291;52.250;21.228;2022-10-14T11:53:43;17.50;;;8.75;;
36253;SDS011;22291;52.250;21.228;2022-10-14T11:56:34;18.48;;;9.70;;
36253;SDS011;22291;52.250;21.228;2022-10-14T11:59:15;21.70;;;9.23;;
36253;SDS011;22291;52.250;21.228;2022-10-14T12:01:43;17.65;;;9.35;;
36253;SDS011;22291;52.250;21.228;2022-10-14T12:04:12;14.38;;;9.33;;
36253;SDS011;22291;52.250;21.228;2022-10-14T12:06:47;15.00;;;9.28;;
36253;SDS011;22291;52.250;21.228;2022-10-14T12:09:59;16.93;;;10.28;;
36253;SDS011;22291;52.250;21.228;2022-10-14T12:12:00;15.70;;;9.85;;
36253;SDS011;22291;52.250;21.228;2022-10-14T12:14:31;17.40;;;9.75;;
36253;SDS011;22291;52.250;21.228;2022-10-14T12:17:05;19.20;;;10.98;;
36253;SDS011;22291;52.250;21.228;2022-10-14T12:19:34;16.57;;;11.05;;
36253;SDS011;22291;52.250;21.228;2022-10-14T12:22:08;18.07;;;12.73;;
36253;SDS011;22291;52.250;21.228;2022-10-14T12:24:44;14.93;;;12.05;;
36253;SDS011;22291;52.250;21.228;2022-10-14T12:27:14;17.48;;;12.73;;
36253;SDS011;22291;52.250;21.228;2022-10-14T12:29:42;18.65;;;10.45;;
36253;SDS011;22291;52.250;21.228;2022-10-14T12:34:47;17.35;;;10.32;;
36253;SDS011;22291;52.250;21.228;2022-10-14T12:42:33;19.00;;;13.32;;
36253;SDS011;22291;52.250;21.228;2022-10-14T12:45:03;20.10;;;13.78;;
36253;SDS011;22291;52.250;21.228;2022-10-14T12:47:41;20.65;;;12.28;;
36253;SDS011;22291;52.250;21.228;2022-10-14T12:52:45;18.10;;;11.22;;
36253;SDS011;22291;52.250;21.228;2022-10-14T12:55:14;18.35;;;11.10;;
36253;SDS011;22291;52.250;21.228;2022-10-14T12:57:41;19.25;;;11.75;;
36253;SDS011;22291;52.250;21.228;2022-10-14T13:00:27;19.42;;;11.68;;
36253;SDS011;22291;52.250;21.228;2022-10-14T13:02:43;21.52;;;11.70;;
36253;SDS011;22291;52.250;21.228;2022-10-14T13:18:58;16.87;;;13.57;;
36253;SDS011;22291;52.250;21.228;2022-10-14T13:23:58;21.05;;;14.00;;
36253;SDS011;22291;52.250;21.228;2022-10-14T13:29:15;19.17;;;11.53;;
36253;SDS011;22291;52.250;21.228;2022-10-14T13:39:32;24.90;;;13.83;;
36253;SDS011;22291;52.250;21.228;2022-10-14T13:41:59;22.35;;;12.05;;
36253;SDS011;22291;52.250;21.228;2022-10-14T13:44:26;23.57;;;12.63;;
36253;SDS011;22291;52.250;21.228;2022-10-14T13:46:52;18.60;;;12.50;;
36253;SDS011;22291;52.250;21.228;2022-10-14T13:49:23;16.37;;;12.30;;
36253;SDS011;22291;52.250;21.228;2022-10-14T13:51:58;21.73;;;11.70;;
36253;SDS011;22291;52.250;21.228;2022-10-14T13:54:29;19.87;;;13.00;;
36253;SDS011;22291;52.250;21.228;2022-10-14T13:57:02;28.55;;;14.70;;
36253;SDS011;22291;52.250;21.228;2022-10-14T13:59:41;18.67;;;12.47;;
36253;SDS011;22291;52.250;21.228;2022-10-14T14:02:08;27.42;;;14.85;;
36253;SDS011;22291;52.250;21.228;2022-10-14T14:04:39;21.62;;;13.75;;
36253;SDS011;22291;52.250;21.228;2022-10-14T14:07:05;27.02;;;15.30;;
36253;SDS011;22291;52.250;21.228;2022-10-14T14:09:31;20.62;;;15.28;;
36253;SDS011;22291;52.250;21.228;2022-10-14T14:12:00;29.65;;;23.80;;
36253;SDS011;22291;52.250;21.228;2022-10-14T14:14:39;28.17;;;19.07;;
36253;SDS011;22291;52.250;21.228;2022-10-14T14:17:03;19.75;;;14.03;;
36253;SDS011;22291;52.250;21.228;2022-10-14T14:19:34;19.57;;;14.87;;
36253;SDS011;22291;52.250;21.228;2022-10-14T14:22:39;22.93;;;15.45;;
36253;SDS011;22291;52.250;21.228;2022-10-14T14:24:42;24.50;;;15.43;;
36253;SDS011;22291;52.250;21.228;2022-10-14T14:27:11;29.35;;;16.50;;
36253;SDS011;22291;52.250;21.228;2022-10-14T14:29:39;21.82;;;14.05;;
36253;SDS011;22291;52.250;21.228;2022-10-14T14:32:16;21.97;;;16.02;;
36253;SDS011;22291;52.250;21.228;2022-10-14T14:34:47;22.58;;;16.80;;
36253;SDS011;22291;52.250;21.228;2022-10-14T14:37:16;29.48;;;16.25;;
36253;SDS011;22291;52.250;21.228;2022-10-14T14:42:37;27.48;;;17.60;;
36253;SDS011;22291;52.250;21.228;2022-10-14T14:45:12;25.85;;;18.50;;
36253;SDS011;22291;52.250;21.228;2022-10-14T14:47:46;24.47;;;17.82;;
36253;SDS011;22291;52.250;21.228;2022-10-14T14:50:15;28.45;;;19.27;;
36253;SDS011;22291;52.250;21.228;2022-10-14T14:52:43;29.65;;;19.98;;
36253;SDS011;22291;52.250;21.228;2022-10-14T14:58:18;34.45;;;21.55;;
36253;SDS011;22291;52.250;21.228;2022-10-14T15:00:42;30.85;;;21.40;;
36253;SDS011;22291;52.250;21.228;2022-10-14T15:03:09;28.02;;;20.50;;
36253;SDS011;22291;52.250;21.228;2022-10-14T15:05:35;28.15;;;20.48;;
36253;SDS011;22291;52.250;21.228;2022-10-14T15:08:01;32.83;;;21.90;;
36253;SDS011;22291;52.250;21.228;2022-10-14T15:10:28;35.35;;;23.35;;
36253;SDS011;22291;52.250;21.228;2022-10-14T15:12:59;34.00;;;22.73;;
36253;SDS011;22291;52.250;21.228;2022-10-14T15:15:31;38.00;;;23.70;;
36253;SDS011;22291;52.250;21.228;2022-10-14T15:18:12;34.53;;;24.10;;
36253;SDS011;22291;52.250;21.228;2022-10-14T15:20:44;38.98;;;24.27;;
36253;SDS011;22291;52.250;21.228;2022-10-14T15:26:00;38.75;;;25.25;;
36253;SDS011;22291;52.250;21.228;2022-10-14T15:28:29;34.53;;;23.65;;
36253;SDS011;22291;52.250;21.228;2022-10-14T15:30:56;35.25;;;23.62;;
36253;SDS011;22291;52.250;21.228;2022-10-14T15:33:24;43.95;;;26.15;;
36253;SDS011;22291;52.250;21.228;2022-10-14T15:35:58;37.20;;;25.70;;
36253;SDS011;22291;52.250;21.228;2022-10-14T15:38:26;35.90;;;24.32;;
36253;SDS011;22291;52.250;21.228;2022-10-14T15:40:53;39.13;;;25.75;;
36253;SDS011;22291;52.250;21.228;2022-10-14T15:43:23;36.53;;;24.60;;
36253;SDS011;22291;52.250;21.228;2022-10-14T15:45:51;40.75;;;26.35;;
36253;SDS011;22291;52.250;21.228;2022-10-14T15:48:38;40.98;;;26.50;;
36253;SDS011;22291;52.250;21.228;2022-10-14T15:51:05;38.08;;;25.43;;
36253;SDS011;22291;52.250;21.228;2022-10-14T15:53:31;40.75;;;27.27;;
36253;SDS011;22291;52.250;21.228;2022-10-14T15:55:58;39.90;;;26.80;;
36253;SDS011;22291;52.250;21.228;2022-10-14T15:58:26;40.28;;;27.00;;
36253;SDS011;22291;52.250;21.228;2022-10-14T16:00:52;41.28;;;26.60;;
36253;SDS011;22291;52.250;21.228;2022-10-14T16:03:19;38.28;;;26.75;;
36253;SDS011;22291;52.250;21.228;2022-10-14T16:05:44;39.60;;;26.70;;
36253;SDS011;22291;52.250;21.228;2022-10-14T16:08:11;38.28;;;26.40;;
36253;SDS011;22291;52.250;21.228;2022-10-14T16:10:38;42.05;;;26.82;;
36253;SDS011;22291;52.250;21.228;2022-10-14T16:13:05;39.83;;;25.82;;
36253;SDS011;22291;52.250;21.228;2022-10-14T16:15:42;35.03;;;24.87;;
36253;SDS011;22291;52.250;21.228;2022-10-14T16:18:03;34.10;;;24.65;;
36253;SDS011;22291;52.250;21.228;2022-10-14T16:20:29;38.28;;;25.05;;
36253;SDS011;22291;52.250;21.228;2022-10-14T16:22:56;34.88;;;24.37;;
36253;SDS011;22291;52.250;21.228;2022-10-14T16:25:28;36.68;;;24.20;;
36253;SDS011;22291;52.250;21.228;2022-10-14T16:28:02;35.08;;;24.07;;
36253;SDS011;22291;52.250;21.228;2022-10-14T16:30:31;31.67;;;24.63;;
36253;SDS011;22291;52.250;21.228;2022-10-14T16:32:57;39.40;;;25.45;;